Time;durP1;ratioP1;P1;durP2;ratioP2;P2;SDS_P1;SDS_P2;PMS_P1;PMS_P2;Temp;Humidity;BMP_temperature;BMP_pressure;BME280_temperature;BME280_humidity;BME280_pressure;Samples;Min_cycle;Max_cycle;Signal;HPM_P1;HPM_P2
2021/04/01 00:00:23;;;;;;;7.31;2.78;;;;;;;8.95;67.84;99655.59;2020838;77;20234;-68
2021/04/01 00:03:25;;;;;;;7.70;3.74;;;;;;;8.90;67.90;99665.06;2016487;80;20179;-68
2021/04/01 00:06:26;;;;;;;6.85;2.70;;;;;;;8.86;67.27;99652.97;2016506;80;20217;-71
2021/04/01 00:09:28;;;;;;;4.32;2.22;;;;;;;8.80;66.99;99643.44;2016570;80;20202;-72
2021/04/01 00:12:29;;;;;;;4.46;1.64;;;;;;;8.75;67.83;99650.28;2016591;80;20364;-71
2021/04/01 00:15:33;;;;;;;3.79;1.75;;;;;;;8.68;68.47;99649.41;2016183;76;21121;-72
2021/04/01 00:18:34;;;;;;;5.14;2.21;;;;;;;8.66;67.90;99632.13;2022148;80;20171;-71
2021/04/01 00:21:36;;;;;;;2.95;2.05;;;;;;;8.61;67.85;99626.88;2021363;80;20185;-72
2021/04/01 00:24:38;;;;;;;2.55;1.64;;;;;;;8.57;67.26;99624.28;2021848;80;20202;-72
2021/04/01 00:27:39;;;;;;;7.88;2.29;;;;;;;8.54;67.40;99626.84;2021804;80;20607;-72
2021/04/01 00:30:41;;;;;;;5.74;2.26;;;;;;;8.49;68.35;99621.66;2019079;77;20298;-72
2021/04/01 00:33:44;;;;;;;8.23;3.17;;;;;;;8.47;68.72;99623.38;2016090;80;20221;-72
2021/04/01 00:36:45;;;;;;;10.41;2.69;;;;;;;8.43;68.73;99616.41;2016369;80;20172;-71
2021/04/01 00:39:47;;;;;;;5.94;3.05;;;;;;;8.40;68.83;99618.97;2019446;80;20189;-71
2021/04/01 00:42:48;;;;;;;4.20;2.25;;;;;;;8.34;68.31;99622.38;2016123;80;20197;-71
2021/04/01 00:45:50;;;;;;;9.50;3.06;;;;;;;8.34;68.08;99618.94;2017047;77;20171;-72
2021/04/01 00:48:52;;;;;;;5.71;2.71;;;;;;;8.29;68.48;99623.19;2021652;80;20248;-71
2021/04/01 00:51:53;;;;;;;4.99;2.56;;;;;;;8.23;68.93;99610.16;2022096;80;20143;-71
2021/04/01 00:54:55;;;;;;;6.88;2.46;;;;;;;8.20;69.23;99618.78;2021341;80;20179;-71
2021/04/01 00:58:00;;;;;;;5.36;2.19;;;;;;;8.16;69.09;99615.31;2021664;80;20198;-71
2021/04/01 01:01:18;;;;;;;7.64;2.80;;;;;;;8.13;69.57;99609.25;2023569;77;23720;-71
2021/04/01 01:04:20;;;;;;;2.57;2.00;;;;;;;8.08;69.57;99611.78;2021756;80;20209;-71
2021/04/01 01:07:22;;;;;;;4.06;2.03;;;;;;;8.06;69.76;99613.47;2021897;80;20204;-72
2021/04/01 01:10:30;;;;;;;3.54;1.96;;;;;;;8.02;69.25;99611.72;2021676;80;20167;-71
2021/04/01 01:13:32;;;;;;;3.20;2.00;;;;;;;8.00;69.28;99609.97;2021573;80;20940;-71
2021/04/01 01:16:34;;;;;;;4.47;2.16;;;;;;;7.95;69.36;99609.94;2021099;77;21202;-71
2021/04/01 01:19:38;;;;;;;4.31;2.13;;;;;;;7.92;69.65;99611.63;2020943;80;20178;-72
2021/04/01 01:22:42;;;;;;;7.05;2.03;;;;;;;7.88;69.79;99610.72;2021625;80;20255;-72
2021/04/01 01:25:44;;;;;;;3.41;1.52;;;;;;;7.81;70.02;99612.38;2021039;80;20163;-72
2021/04/01 01:28:47;;;;;;;5.35;2.11;;;;;;;7.76;69.74;99610.63;2021452;80;20178;-71
2021/04/01 01:31:50;;;;;;;3.59;2.16;;;;;;;7.73;69.72;99619.22;2017832;77;22497;-71
2021/04/01 01:34:51;;;;;;;6.09;2.04;;;;;;;7.67;69.80;99611.38;2016567;80;20207;-71
2021/04/01 01:37:57;;;;;;;3.35;1.59;;;;;;;7.63;69.89;99614.78;2016618;80;20191;-71
2021/04/01 01:40:58;;;;;;;3.36;1.83;;;;;;;7.58;70.33;99612.16;2016014;80;20163;-71
2021/04/01 01:44:01;;;;;;;1.64;1.46;;;;;;;7.51;71.15;99619.78;2016320;80;20168;-71
2021/04/01 01:47:03;;;;;;;3.36;1.48;;;;;;;7.48;71.10;99618.03;2015389;77;20379;-71
2021/04/01 01:50:06;;;;;;;4.69;2.05;;;;;;;7.45;71.14;99614.56;2016143;80;20175;-71
2021/04/01 01:53:10;;;;;;;4.07;1.60;;;;;;;7.43;70.95;99611.09;2016385;80;20171;-71
2021/04/01 01:56:21;;;;;;;4.28;1.81;;;;;;;7.40;71.01;99609.34;2016113;80;20741;-71
2021/04/01 01:59:22;;;;;;;3.54;2.19;;;;;;;7.35;71.10;99616.16;2016060;80;20176;-71
2021/04/01 02:02:24;;;;;;;3.70;1.95;;;;;;;7.31;71.29;99604.06;2020256;77;20405;-71
2021/04/01 02:05:27;;;;;;;6.61;2.05;;;;;;;7.28;70.95;99602.31;2022934;80;20178;-71
2021/04/01 02:08:28;;;;;;;4.96;1.66;;;;;;;7.26;71.69;99603.16;2022400;80;20204;-72
2021/04/01 02:11:30;;;;;;;6.74;1.85;;;;;;;7.23;71.96;99606.56;2022338;80;20271;-71
2021/04/01 02:14:32;;;;;;;5.55;1.89;;;;;;;7.22;72.00;99614.31;2023249;80;20534;-71
2021/04/01 02:17:33;;;;;;;3.61;1.86;;;;;;;7.21;72.36;99613.44;2017627;77;21331;-71
2021/04/01 02:20:41;;;;;;;5.60;1.70;;;;;;;7.16;72.55;99617.66;2017595;80;21129;-71
2021/04/01 02:23:45;;;;;;;5.41;2.39;;;;;;;7.13;72.15;99604.69;2016934;80;20209;-71
2021/04/01 02:26:47;;;;;;;2.29;1.42;;;;;;;7.12;71.91;99609.84;2018232;80;20336;-71
2021/04/01 02:29:48;;;;;;;4.50;1.98;;;;;;;7.11;71.72;99615.88;2017549;80;20167;-70
2021/04/01 02:32:50;;;;;;;2.34;1.44;;;;;;;7.06;71.57;99610.66;2021138;76;20183;-71
2021/04/01 02:35:53;;;;;;;4.34;1.71;;;;;;;7.04;71.88;99606.31;2018475;80;20914;-71
2021/04/01 02:38:54;;;;;;;4.89;1.90;;;;;;;7.00;71.95;99607.09;2021932;80;20640;-71
2021/04/01 02:41:56;;;;;;;6.30;1.91;;;;;;;6.97;71.79;99602.75;2022809;80;20159;-71
2021/04/01 02:44:58;;;;;;;7.99;2.31;;;;;;;6.95;71.75;99607.03;2022743;80;20730;-71
2021/04/01 02:47:59;;;;;;;4.45;1.50;;;;;;;6.93;71.63;99601.88;2016658;77;20205;-71
2021/04/01 02:51:02;;;;;;;3.95;1.76;;;;;;;6.90;71.82;99608.69;2017438;80;20663;-70
2021/04/01 02:54:04;;;;;;;3.45;1.79;;;;;;;6.86;71.82;99606.94;2017263;80;20223;-71
2021/04/01 02:57:16;;;;;;;2.74;1.90;;;;;;;6.81;71.93;99612.00;2017858;80;20317;-71
2021/04/01 03:00:22;;;;;;;6.04;2.20;;;;;;;6.77;72.88;99620.56;2017292;77;20208;-71
2021/04/01 03:03:30;;;;;;;4.97;2.84;;;;;;;6.72;72.96;99622.22;2021989;80;20201;-71
2021/04/01 03:06:33;;;;;;;2.21;1.99;;;;;;;6.71;72.83;99622.19;2021539;80;20237;-71
2021/04/01 03:09:35;;;;;;;3.09;2.36;;;;;;;6.65;72.55;99623.84;2021034;80;20628;-71
2021/04/01 03:12:37;;;;;;;4.22;2.40;;;;;;;6.64;72.38;99621.22;2021125;80;20159;-71
2021/04/01 03:15:39;;;;;;;3.63;2.17;;;;;;;6.61;72.39;99622.03;2019011;77;20406;-71
2021/04/01 03:18:41;;;;;;;3.50;1.67;;;;;;;6.58;72.14;99624.59;2017938;80;20159;-71
2021/04/01 03:21:43;;;;;;;2.17;2.00;;;;;;;6.55;71.98;99619.38;2016521;80;20351;-71
2021/04/01 03:24:45;;;;;;;4.79;1.75;;;;;;;6.50;72.37;99618.44;2017282;80;20322;-71
2021/04/01 03:27:47;;;;;;;4.66;1.51;;;;;;;6.48;73.36;99608.97;2016534;80;20305;-71
2021/04/01 03:30:59;;;;;;;3.10;1.36;;;;;;;6.45;73.80;99616.63;2017269;76;41784;-71
2021/04/01 03:34:01;;;;;;;2.38;1.67;;;;;;;6.41;74.21;99618.28;2022352;80;20348;-71
2021/04/01 03:37:03;;;;;;;3.49;1.85;;;;;;;6.35;74.00;99621.66;2022249;80;20338;-71
2021/04/01 03:40:07;;;;;;;3.46;1.66;;;;;;;6.32;73.46;99621.59;2022359;80;20821;-70
2021/04/01 03:43:08;;;;;;;5.26;1.89;;;;;;;6.28;73.69;99617.25;2022064;80;20363;-71
2021/04/01 03:46:12;;;;;;;6.86;2.16;;;;;;;6.25;73.41;99614.59;2019374;80;20313;-71
2021/04/01 03:49:13;;;;;;;4.76;1.80;;;;;;;6.19;73.95;99619.66;2016805;80;20188;-71
2021/04/01 03:52:15;;;;;;;5.24;3.09;;;;;;;6.19;73.74;99616.22;2016870;80;20882;-71
2021/04/01 03:55:59;;;;;;;3.42;1.89;;;;;;;6.20;74.11;99613.66;2016848;80;20321;-71
2021/04/01 04:05:10;;;;;;;6.10;1.73;;;;;;;6.11;74.18;99618.69;2021655;80;20325;-71
2021/04/01 04:14:45;;;;;;;6.15;2.10;;;;;;;5.96;74.01;99620.97;2022036;80;20312;-71
2021/04/01 04:17:47;;;;;;;6.06;1.99;;;;;;;5.91;73.48;99625.16;2016425;77;20885;-71
2021/04/01 04:20:49;;;;;;;4.00;2.34;;;;;;;5.91;74.10;99627.75;2016988;80;20293;-72
2021/04/01 04:23:50;;;;;;;7.09;2.46;;;;;;;5.86;74.67;99629.34;2012463;80;20337;-71
2021/04/01 04:26:52;;;;;;;8.98;3.04;;;;;;;5.86;75.30;99632.78;2016651;80;20336;-71
2021/04/01 04:30:00;;;;;;;6.21;3.35;;;;;;;5.80;75.64;99635.25;2016960;80;20309;-71
2021/04/01 04:33:02;;;;;;;5.80;3.53;;;;;;;5.78;75.50;99634.38;2016461;77;20739;-71
2021/04/01 04:36:04;;;;;;;8.15;3.66;;;;;;;5.75;75.34;99637.75;2017293;80;20313;-70
2021/04/01 04:39:06;;;;;;;7.44;3.76;;;;;;;5.71;75.18;99629.94;2017217;80;20802;-71
2021/04/01 04:42:08;;;;;;;5.46;2.54;;;;;;;5.68;75.05;99632.44;2015791;80;20365;-70
2021/04/01 04:45:10;;;;;;;6.60;3.01;;;;;;;5.62;75.10;99628.06;2016680;80;20331;-71
2021/04/01 04:48:12;;;;;;;5.72;2.94;;;;;;;5.60;75.10;99629.75;2021525;76;20339;-71
2021/04/01 04:51:13;;;;;;;6.50;3.16;;;;;;;5.54;74.49;99627.03;2022412;80;20361;-70
2021/04/01 04:54:15;;;;;;;5.65;2.66;;;;;;;5.47;74.03;99618.31;2021919;80;20345;-72
2021/04/01 04:57:25;;;;;;;6.29;2.50;;;;;;;5.45;74.56;99619.13;2021774;80;20768;-72
2021/04/01 05:06:54;;;;;;;4.05;2.36;;;;;;;5.37;76.47;99618.97;2016193;80;20313;-71
2021/04/01 05:09:56;;;;;;;6.49;3.20;;;;;;;5.37;76.53;99623.25;2016861;80;21015;-71
2021/04/01 05:13:11;;;;;;;6.82;2.40;;;;;;;5.41;76.79;99622.50;2016751;80;20365;-72
2021/04/01 05:16:12;;;;;;;6.79;2.59;;;;;;;5.38;77.24;99620.69;2016214;77;22372;-71
2021/04/01 05:19:15;;;;;;;5.43;2.81;;;;;;;5.38;76.88;99618.13;2016516;80;20654;-71
2021/04/01 05:22:23;;;;;;;6.94;3.38;;;;;;;5.42;76.68;99616.50;2016634;80;20420;-71
2021/04/01 05:25:27;;;;;;;4.71;2.63;;;;;;;5.35;76.35;99618.06;2016270;80;20343;-71
2021/04/01 05:28:33;;;;;;;4.15;2.56;;;;;;;5.32;76.13;99623.16;2016556;80;20321;-71
2021/04/01 05:31:42;;;;;;;4.60;2.44;;;;;;;5.39;76.22;99619.03;2018375;76;21269;-71
2021/04/01 05:34:44;;;;;;;4.63;2.45;;;;;;;5.49;77.07;99620.94;2021471;80;20412;-71
2021/04/01 05:37:46;;;;;;;5.35;2.72;;;;;;;5.56;77.22;99619.31;2021756;80;20954;-71
2021/04/01 05:40:48;;;;;;;5.30;2.36;;;;;;;5.63;76.87;99626.34;2021489;80;20336;-71
2021/04/01 05:44:38;;;;;;;3.25;2.19;;;;;;;5.69;76.59;99626.47;2021219;80;20846;-71
2021/04/01 05:47:26;;;;;;;9.46;2.97;;;;;;;5.81;75.96;99634.41;2013361;77;20819;-71
2021/04/01 05:54:50;;;;;;;6.24;2.50;;;;;;;6.07;76.46;99634.91;2013851;80;20348;-72
2021/04/01 06:03:53;;;;;;;7.25;2.65;;;;;;;6.60;75.57;99651.28;2014135;80;20361;-72
2021/04/01 06:10:09;;;;;;;6.41;2.67;;;;;;;6.97;74.59;99649.22;2014239;80;20821;-72
2021/04/01 06:13:13;;;;;;;8.24;3.34;;;;;;;7.15;75.00;99649.47;2014023;80;20335;-72
2021/04/01 06:16:15;;;;;;;6.10;2.99;;;;;;;7.31;74.57;99650.56;2014924;77;21088;-72
2021/04/01 06:19:17;;;;;;;7.44;2.89;;;;;;;7.50;73.87;99660.28;2019341;80;20192;-72
2021/04/01 06:22:21;;;;;;;6.34;2.90;;;;;;;7.63;72.92;99658.69;2019418;80;20204;-72
2021/04/01 06:25:23;;;;;;;3.45;2.65;;;;;;;7.77;72.39;99664.03;2019218;80;20313;-72
2021/04/01 06:28:35;;;;;;;4.95;3.00;;;;;;;8.03;71.26;99664.31;2019404;80;20385;-72
2021/04/01 06:31:44;;;;;;;5.71;2.61;;;;;;;8.17;71.58;99671.34;2015836;77;24067;-72
2021/04/01 06:34:46;;;;;;;6.01;3.28;;;;;;;8.25;71.21;99674.00;2013636;80;20686;-72
2021/04/01 06:41:12;;;;;;;3.96;3.08;;;;;;;9.68;67.34;99677.56;2014708;80;20200;-77
2021/04/01 06:44:40;;;;;;;9.10;3.42;;;;;;;10.36;65.81;99669.97;2013309;80;21128;-73
2021/04/01 06:47:44;;;;;;;11.57;3.60;;;;;;;10.63;64.35;99674.34;2016099;77;50299;-71
2021/04/01 06:50:50;;;;;;;7.03;3.34;;;;;;;10.72;62.75;99675.19;2018964;80;20213;-71
2021/04/01 06:57:57;;;;;;;7.40;3.36;;;;;;;10.51;64.17;99675.19;2020077;80;20269;-71
2021/04/01 07:01:08;;;;;;;6.34;3.87;;;;;;;10.60;64.55;99680.41;2018993;78;21239;-71
2021/04/01 07:04:14;;;;;;;8.69;4.24;;;;;;;10.86;63.65;99680.38;2019792;80;20191;-72
2021/04/01 07:07:18;;;;;;;7.75;3.67;;;;;;;11.09;62.70;99672.53;2019992;80;20570;-76
2021/04/01 07:10:41;;;;;;;15.96;4.20;;;;;;;11.31;62.01;99682.03;2020557;80;21304;-73
2021/04/01 07:13:48;;;;;;;17.13;4.35;;;;;;;11.29;60.97;99681.16;2019496;80;20228;-71
2021/04/01 07:17:07;;;;;;;12.91;4.09;;;;;;;11.49;60.75;99678.53;2016630;78;21474;-72
2021/04/01 07:20:30;;;;;;;11.92;4.23;;;;;;;11.77;60.59;99668.84;2014465;80;20175;-72
2021/04/01 07:46:57;;;;;;;22.23;6.91;;;;;;;14.93;52.81;99666.28;2015226;77;20914;-72
2021/04/01 07:50:14;;;;;;;19.10;7.31;;;;;;;15.32;51.66;99674.28;2015144;80;20217;-73
2021/04/01 07:53:26;;;;;;;19.38;6.93;;;;;;;15.49;50.70;99672.19;2014790;80;20648;-72
2021/04/01 07:57:00;;;;;;;16.40;6.11;;;;;;;15.80;49.82;99661.09;2014485;80;20240;-72
2021/04/01 08:00:32;;;;;;;10.88;5.45;;;;;;;15.96;48.75;99665.13;2014430;80;20693;-72
2021/04/01 08:06:43;;;;;;;12.57;6.39;;;;;;;16.70;48.54;99675.66;2009695;80;20250;-72
2021/04/01 08:09:49;;;;;;;18.21;7.57;;;;;;;17.00;47.73;99663.50;2008342;80;20198;-72
2021/04/01 08:13:00;;;;;;;15.02;6.31;;;;;;;17.19;47.10;99663.88;2009448;80;20180;-72
2021/04/01 08:16:09;;;;;;;16.16;6.71;;;;;;;17.47;46.94;99657.00;2012091;77;20349;-71
2021/04/01 08:19:14;;;;;;;17.73;7.13;;;;;;;17.76;45.97;99657.94;2020095;80;20183;-72
2021/04/01 08:22:42;;;;;;;16.34;6.84;;;;;;;17.77;45.19;99654.41;2020187;80;20233;-73
2021/04/01 08:30:17;;;;;;;21.08;7.21;;;;;;;18.40;44.82;99654.19;2020650;80;20195;-71
2021/04/01 08:33:25;;;;;;;15.31;6.19;;;;;;;18.65;43.89;99651.66;2009361;77;20234;-73
2021/04/01 08:36:49;;;;;;;21.15;7.50;;;;;;;18.90;43.12;99646.44;2010392;80;20607;-71
2021/04/01 08:40:11;;;;;;;13.84;6.88;;;;;;;19.21;43.39;99651.50;2009937;80;20783;-72
2021/04/01 08:44:00;;;;;;;18.09;6.81;;;;;;;19.42;42.29;99652.50;2010502;80;20207;-74
2021/04/01 08:47:42;;;;;;;20.14;6.72;;;;;;;19.43;41.84;99646.31;2017697;77;21828;-73
2021/04/01 08:51:02;;;;;;;10.18;6.31;;;;;;;19.56;41.47;99647.59;2020853;80;20236;-73
2021/04/01 08:54:43;;;;;;;13.09;6.13;;;;;;;19.83;40.74;99650.13;2020356;80;20206;-73
2021/04/01 08:58:02;;;;;;;12.23;5.80;;;;;;;20.11;39.85;99652.56;2020911;80;20612;-74
2021/04/01 09:01:14;;;;;;;15.26;6.69;;;;;;;20.40;39.05;99648.75;2019126;77;20220;-74
2021/04/01 09:04:25;;;;;;;10.81;6.26;;;;;;;20.53;37.71;99639.47;2017358;80;20236;-73
2021/04/01 09:07:36;;;;;;;20.13;7.19;;;;;;;20.59;37.53;99641.84;2016673;80;20960;-73
2021/04/01 09:10:52;;;;;;;15.34;6.70;;;;;;;20.78;36.71;99634.88;2016811;80;20229;-75
2021/04/01 09:13:55;;;;;;;16.84;5.80;;;;;;;20.87;37.31;99633.66;2016859;80;20244;-73
2021/04/01 09:17:15;;;;;;;15.81;6.35;;;;;;;21.01;37.84;99630.41;2019921;77;21157;-73
2021/04/01 09:20:20;;;;;;;14.77;5.90;;;;;;;21.24;37.85;99626.78;2022233;80;20234;-72
2021/04/01 09:23:31;;;;;;;15.94;6.10;;;;;;;21.24;36.94;99627.66;2021682;80;20191;-73
2021/04/01 09:26:33;;;;;;;14.34;6.74;;;;;;;21.34;36.67;99626.31;2022040;80;20202;-73
2021/04/01 09:29:42;;;;;;;11.24;5.84;;;;;;;21.64;36.01;99616.16;2022290;80;20375;-71
2021/04/01 09:32:47;;;;;;;11.82;6.66;;;;;;;21.88;35.22;99619.41;2016633;77;20223;-73
2021/04/01 09:35:48;;;;;;;12.93;6.29;;;;;;;21.98;35.12;99618.06;2016385;80;20225;-73
2021/04/01 09:39:03;;;;;;;13.89;5.66;;;;;;;22.19;34.65;99616.22;2017007;80;20197;-72
2021/04/01 09:42:12;;;;;;;17.73;6.21;;;;;;;22.41;34.60;99615.16;2016803;80;20192;-73
2021/04/01 09:45:27;;;;;;;13.24;5.26;;;;;;;22.55;33.52;99613.56;2016582;77;23352;-73
2021/04/01 09:48:31;;;;;;;13.27;6.22;;;;;;;22.78;32.75;99614.19;2022338;80;20199;-73
2021/04/01 09:51:36;;;;;;;17.44;6.13;;;;;;;23.06;31.40;99608.38;2021372;80;20212;-73
2021/04/01 09:54:44;;;;;;;13.45;5.93;;;;;;;23.14;31.26;99598.22;2021572;80;20201;-72
2021/04/01 09:57:48;;;;;;;9.67;5.52;;;;;;;23.13;30.93;99594.69;2021647;80;20675;-73
2021/04/01 10:04:04;;;;;;;13.04;5.88;;;;;;;23.54;32.23;99593.44;2014830;80;20180;-73
2021/04/01 10:07:13;;;;;;;11.66;5.90;;;;;;;23.73;31.13;99586.22;2013504;80;20172;-72
2021/04/01 10:10:15;;;;;;;10.55;4.71;;;;;;;23.95;31.32;99586.75;2014981;80;20704;-72
2021/04/01 10:13:25;;;;;;;11.51;5.11;;;;;;;24.01;30.87;99589.03;2014858;80;20167;-73
2021/04/01 10:16:29;;;;;;;10.13;5.97;;;;;;;24.13;31.14;99584.84;2017172;77;21537;-71
2021/04/01 10:19:44;;;;;;;12.29;5.64;;;;;;;24.20;30.81;99580.88;2019790;80;21177;-71
2021/04/01 10:22:46;;;;;;;16.84;5.60;;;;;;;24.23;30.24;99571.88;2020055;80;20175;-71
2021/04/01 10:25:54;;;;;;;16.19;5.60;;;;;;;24.45;31.01;99575.06;2019217;80;20692;-72
2021/04/01 10:29:00;;;;;;;;;;;;;;;24.63;30.57;99586.41;2020390;80;20192;-71
2021/04/01 10:32:05;;;;;;;12.95;5.38;;;;;;;24.77;29.55;99574.94;2016835;77;23344;-72
2021/04/01 10:35:09;;;;;;;15.45;5.64;;;;;;;24.60;28.71;99574.19;2016512;80;20196;-71
2021/04/01 10:38:14;;;;;;;9.90;3.76;;;;;;;24.43;28.32;99569.00;2016726;80;20633;-72
2021/04/01 10:41:18;;;;;;;10.80;4.95;;;;;;;24.36;27.62;99555.22;2016554;80;20640;-71
2021/04/01 10:44:22;;;;;;;13.82;4.79;;;;;;;24.55;28.50;99562.09;2016109;80;20196;-72
2021/04/01 10:47:43;;;;;;;15.74;5.40;;;;;;;24.82;29.21;99555.16;2015053;77;21601;-71
2021/04/01 10:50:45;;;;;;;13.86;6.35;;;;;;;25.09;29.43;99554.44;2013312;80;20202;-71
2021/04/01 10:53:47;;;;;;;18.21;6.01;;;;;;;25.12;29.02;99554.25;2016293;80;20760;-72
2021/04/01 10:56:53;;;;;;;9.50;4.63;;;;;;;25.04;29.49;99559.19;2015416;80;20179;-72
2021/04/01 10:59:59;;;;;;;15.52;4.82;;;;;;;25.05;27.53;99544.94;2016467;80;20168;-72
2021/04/01 11:03:03;;;;;;;11.52;4.07;;;;;;;25.08;29.31;99547.41;2021005;77;22912;-71
2021/04/01 11:06:07;;;;;;;15.57;4.53;;;;;;;25.35;28.63;99542.19;2021078;80;20291;-72
2021/04/01 11:09:10;;;;;;;18.31;5.24;;;;;;;25.42;26.40;99543.50;2020593;80;20330;-71
2021/04/01 11:12:15;;;;;;;6.63;3.65;;;;;;;25.51;26.93;99545.59;2019367;80;20223;-72
2021/04/01 11:15:21;;;;;;;12.15;3.14;;;;;;;25.52;25.70;99542.00;2019318;80;20175;-72
2021/04/01 11:18:25;;;;;;;7.47;3.47;;;;;;;25.56;26.75;99531.06;2021075;80;20192;-71
2021/04/01 11:21:32;;;;;;;7.11;2.95;;;;;;;25.73;26.07;99534.47;2020730;80;20207;-72
2021/04/01 11:24:38;;;;;;;9.74;3.34;;;;;;;25.85;25.34;99531.00;2019848;80;20759;-71
2021/04/01 11:27:53;;;;;;;13.30;3.29;;;;;;;26.00;26.76;99534.47;2018897;80;20192;-72
2021/04/01 11:30:55;;;;;;;6.96;3.36;;;;;;;26.04;24.49;99536.88;2017669;80;20447;-72
2021/04/01 11:33:59;;;;;;;8.46;2.80;;;;;;;26.05;25.07;99532.38;2013919;80;20219;-72
2021/04/01 11:37:05;;;;;;;8.30;3.21;;;;;;;26.15;24.36;99537.00;2014556;80;20866;-73
2021/04/01 11:40:08;;;;;;;10.75;3.28;;;;;;;26.18;24.50;99528.78;2014677;80;20514;-72
2021/04/01 11:43:11;;;;;;;6.97;2.60;;;;;;;26.32;25.29;99535.00;2015405;80;20235;-72
2021/04/01 11:46:27;;;;;;;10.21;2.95;;;;;;;26.40;24.05;99533.59;2016580;77;21429;-72
2021/04/01 11:49:29;;;;;;;10.96;3.20;;;;;;;26.41;24.08;99527.31;2020762;80;20207;-72
2021/04/01 11:52:31;;;;;;;10.02;3.05;;;;;;;26.67;24.53;99524.66;2021123;80;20182;-72
2021/04/01 11:55:33;;;;;;;8.27;2.61;;;;;;;26.65;23.55;99524.78;2020095;80;20349;-73
2021/04/01 11:58:35;;;;;;;10.07;3.04;;;;;;;26.63;23.58;99521.38;2020825;80;20963;-72
2021/04/01 12:01:49;;;;;;;8.07;2.94;;;;;;;26.67;22.57;99525.53;2017124;77;20209;-71
2021/04/01 12:04:54;;;;;;;8.98;3.05;;;;;;;26.74;22.37;99518.81;2014942;80;20183;-72
2021/04/01 12:07:56;;;;;;;12.01;3.06;;;;;;;26.92;22.07;99510.50;2015341;80;20191;-72
2021/04/01 12:10:58;;;;;;;10.11;2.85;;;;;;;26.91;21.88;99517.63;2015883;80;20423;-72
2021/04/01 12:14:11;;;;;;;13.15;3.08;;;;;;;26.90;22.08;99512.41;2013423;80;20405;-72
2021/04/01 12:17:13;;;;;;;11.35;3.19;;;;;;;26.99;21.77;99506.47;2017924;77;33159;-72
2021/04/01 12:20:15;;;;;;;6.46;3.61;;;;;;;26.94;21.57;99511.25;2020435;80;20222;-72
2021/04/01 12:23:20;;;;;;;12.24;3.58;;;;;;;26.70;20.47;99508.47;2019757;80;20200;-72
2021/04/01 12:26:22;;;;;;;10.13;3.75;;;;;;;26.76;22.91;99508.06;2020733;80;20194;-73
2021/04/01 12:29:23;;;;;;;9.05;3.67;;;;;;;26.87;22.22;99508.16;2019917;80;20647;-73
2021/04/01 12:32:34;;;;;;;8.63;3.58;;;;;;;26.94;21.98;99501.47;2015968;77;21611;-71
2021/04/01 12:35:47;;;;;;;13.20;4.38;;;;;;;26.91;22.20;99498.97;2014585;80;20198;-72
2021/04/01 12:38:48;;;;;;;12.07;4.71;;;;;;;26.83;21.91;99501.34;2015682;80;20199;-72
2021/04/01 12:41:50;;;;;;;17.54;4.20;;;;;;;26.80;22.23;99497.09;2015361;80;20212;-72
2021/04/01 12:44:51;;;;;;;15.55;4.24;;;;;;;26.79;22.69;99491.88;2015098;80;20238;-70
2021/04/01 12:48:05;;;;;;;15.90;4.18;;;;;;;26.78;21.72;99490.16;2018761;77;23283;-71
2021/04/01 13:16:12;;;;;;;10.21;3.35;;;;;;;27.18;23.03;99458.06;2061071;76;20358;-69
2021/04/01 13:19:14;;;;;;;12.50;3.10;;;;;;;27.11;22.63;99460.31;2050750;78;20190;-70
2021/04/01 13:22:23;;;;;;;6.66;2.90;;;;;;;27.15;23.24;99455.59;2050940;78;20167;-69
2021/04/01 13:25:24;;;;;;;9.30;2.54;;;;;;;27.19;22.64;99451.75;2050325;78;20175;-70
2021/04/01 13:28:26;;;;;;;12.16;2.88;;;;;;;27.39;23.67;99453.81;2050340;78;20174;-71
2021/04/01 13:31:39;;;;;;;6.03;3.05;;;;;;;27.57;23.41;99446.28;2046899;76;20906;-71
2021/04/01 13:34:53;;;;;;;11.21;3.13;;;;;;;27.57;23.50;99446.28;2044917;79;20199;-71
2021/04/01 13:38:19;;;;;;;8.95;3.31;;;;;;;27.61;22.84;99440.63;2045550;79;20241;-71
2021/04/01 13:41:29;;;;;;;7.80;3.49;;;;;;;27.48;23.73;99436.31;2045595;79;20172;-71
2021/04/01 13:47:47;;;;;;;12.74;3.45;;;;;;;27.46;23.10;99435.53;2044031;76;20201;-71
2021/04/01 13:51:11;;;;;;;10.04;4.11;;;;;;;27.48;24.03;99420.31;2044750;79;20196;-72
2021/04/01 14:11:31;;;;;;;16.15;6.24;;;;;;;27.80;22.91;99399.25;2050550;78;20171;-70
2021/04/01 14:14:34;;;;;;;15.05;6.21;;;;;;;27.83;22.00;99405.22;2049928;78;20187;-70
2021/04/01 14:17:37;;;;;;;13.91;6.20;;;;;;;27.83;23.24;99402.56;2049759;76;20191;-70
2021/04/01 14:20:40;;;;;;;18.08;7.86;;;;;;;27.86;21.93;99398.81;2050350;78;20175;-69
2021/04/01 14:23:42;;;;;;;13.96;6.93;;;;;;;27.79;21.47;99400.22;2049865;78;20187;-68
2021/04/01 14:26:49;;;;;;;12.91;5.68;;;;;;;27.64;20.13;99391.53;2047293;78;20235;-69
2021/04/01 14:29:56;;;;;;;15.00;5.60;;;;;;;27.63;21.18;99398.69;2046635;79;20221;-69
2021/04/01 14:33:00;;;;;;;11.50;4.41;;;;;;;27.64;19.64;99402.22;2040774;76;21980;-71
2021/04/01 14:36:11;;;;;;;14.27;4.76;;;;;;;27.49;17.86;99401.53;2041425;79;20208;-70
2021/04/01 14:39:12;;;;;;;17.83;4.86;;;;;;;27.31;18.18;99394.88;2041179;79;20189;-70
2021/04/01 14:42:17;;;;;;;15.11;5.24;;;;;;;27.26;18.23;99403.19;2041578;79;20201;-71
2021/04/01 14:45:18;;;;;;;16.67;5.20;;;;;;;27.25;17.94;99403.31;2041482;76;21185;-70
2021/04/01 14:48:20;;;;;;;70.07;7.70;;;;;;;27.20;18.90;99395.66;2047514;79;20244;-69
2021/04/01 14:51:23;;;;;;;17.90;5.65;;;;;;;27.25;19.50;99385.50;2050053;78;20213;-69
2021/04/01 14:54:30;;;;;;;14.04;5.24;;;;;;;27.10;18.38;99394.59;2046574;79;20197;-69
2021/04/01 14:57:34;;;;;;;12.73;5.05;;;;;;;27.20;19.71;99386.81;2046491;79;20263;-69
2021/04/01 15:00:41;;;;;;;11.71;4.29;;;;;;;27.32;19.77;99385.91;2044001;76;20272;-70
2021/04/01 15:03:44;;;;;;;13.09;4.99;;;;;;;27.36;20.41;99390.91;2040352;79;20288;-69
2021/04/01 15:06:51;;;;;;;17.94;5.13;;;;;;;27.44;19.69;99394.81;2040960;79;20193;-69
2021/04/01 15:09:52;;;;;;;14.59;4.69;;;;;;;27.23;19.50;99390.09;2038513;79;20200;-69
2021/04/01 15:12:54;;;;;;;9.85;4.75;;;;;;;27.22;19.82;99379.53;2040552;79;20738;-68
2021/04/01 15:15:57;;;;;;;7.65;3.75;;;;;;;27.31;20.38;99379.72;2039368;76;20416;-68
2021/04/01 15:19:00;;;;;;;11.57;4.56;;;;;;;27.36;20.72;99382.91;2040892;79;21039;-68
2021/04/01 15:22:02;;;;;;;15.40;4.89;;;;;;;27.20;19.41;99382.31;2040797;79;20706;-68
2021/04/01 15:25:05;;;;;;;14.34;4.18;;;;;;;27.24;19.82;99378.47;2040073;79;20186;-69
2021/04/01 15:28:07;;;;;;;15.89;5.39;;;;;;;27.22;20.33;99376.88;2040791;79;20387;-68
2021/04/01 15:31:10;;;;;;;16.02;6.46;;;;;;;27.20;19.52;99376.13;2041834;77;20179;-68
2021/04/01 15:34:13;;;;;;;11.80;5.60;;;;;;;26.86;20.11;99383.88;2045230;79;20201;-68
2021/04/01 15:37:15;;;;;;;10.30;5.05;;;;;;;26.95;20.41;99374.38;2045226;79;20221;-68
2021/04/01 15:40:18;;;;;;;12.15;4.89;;;;;;;27.08;20.37;99384.06;2045363;79;20193;-69
2021/04/01 15:43:21;;;;;;;10.24;5.59;;;;;;;26.96;20.32;99374.28;2045797;79;20229;-69
2021/04/01 15:46:25;;;;;;;13.40;4.94;;;;;;;27.09;20.67;99376.91;2042355;77;29972;-69
2021/04/01 15:49:26;;;;;;;10.59;5.38;;;;;;;27.02;21.01;99378.31;2040509;79;20190;-69
2021/04/01 15:52:28;;;;;;;13.89;5.30;;;;;;;27.00;20.22;99380.25;2041371;79;20192;-69
2021/04/01 15:55:30;;;;;;;8.30;5.53;;;;;;;26.84;20.91;99382.28;2040488;79;20783;-69
2021/04/01 15:58:32;;;;;;;13.86;5.61;;;;;;;26.88;21.49;99378.44;2041289;79;20212;-70
2021/04/01 16:01:34;;;;;;;14.52;6.71;;;;;;;26.85;21.15;99378.66;2041555;77;21398;-69
2021/04/01 16:04:36;;;;;;;8.55;5.22;;;;;;;26.74;21.01;99379.41;2038110;79;20206;-77
2021/04/01 16:07:38;;;;;;;12.76;5.35;;;;;;;26.82;21.59;99379.72;2040307;79;20905;-77
2021/04/01 16:14:45;;;;;;;12.77;5.32;;;;;;;27.04;22.17;99377.25;2040927;79;20192;-78
2021/04/01 16:17:47;;;;;;;14.25;5.46;;;;;;;27.06;21.88;99371.81;2044411;76;20187;-77
2021/04/01 16:20:48;;;;;;;12.11;5.49;;;;;;;27.14;21.61;99368.59;2046514;79;20737;-77
2021/04/01 16:23:50;;;;;;;10.80;6.44;;;;;;;27.16;20.70;99370.19;2045959;79;20716;-78
2021/04/01 16:26:52;;;;;;;14.71;7.35;;;;;;;27.36;20.50;99368.72;2051010;78;20219;-77
2021/04/01 16:29:53;;;;;;;17.13;7.89;;;;;;;27.76;20.69;99373.78;2046637;79;20700;-77
2021/04/01 16:32:56;;;;;;;15.56;6.81;;;;;;;28.45;19.47;99375.53;2040379;76;20250;-77
2021/04/01 16:36:06;;;;;;;19.10;7.14;;;;;;;28.56;18.94;99377.38;2039435;79;20897;-77
2021/04/01 16:39:08;;;;;;;15.26;6.80;;;;;;;28.91;19.45;99384.44;2040774;79;20657;-77